Okeechobee, FL

7:25 AM EDT on September 22, 2014 (GMT -0400)
Witham | Change Station
CLOSE
Current Station
Airport
Location: Stuart,
Elevation: 20 ft
Nearby Weather Stations

Elev 20 ft 27.18 °N, 80.22 °W | Updated 38 minutes ago

Mostly Cloudy
Mostly Cloudy
72 °F
Feels Like 72 °F
N
0
Wind Variable Wind from North

Today
High -- | Low -- °F
--% Chance of Precip.
Yesterday
High -- | Low -- °F
Precip. -- in
7:11 AM 7:19 PM
Waning Crescent, 3% visible
Pressure 30.02 in
Visibility 7.0 miles
Clouds Scattered Clouds 3000 ft
Mostly Cloudy 10000 ft
Dew Point 72 °F
Humidity 100%
Rainfall 0.00 in
Snow Depth Not available.
UV 0 out of 12
Pollen 2.50 out of 12
Air Quality Not available.
Flu Activity Not available.
METAR KSUA 221047Z 00000KT 7SM SCT030 BKN100 22/22 A3002

More Conditions Fewer Conditions

Pressure 30.02 in
Visibility 7.0 miles
Clouds Scattered Clouds 3000 ft
Mostly Cloudy 10000 ft
Dew Point 72 °F
Humidity 100%
Rainfall 0.00 in
Snow Depth Not available.
UV 0 out of 12
Pollen 2.50 out of 12
Air Quality Not available.
Flu Activity Not available.
METAR KSUA 221047Z 00000KT 7SM SCT030 BKN100 22/22 A3002

More Conditions Fewer Conditions

Nowcast | as of 6:10 am EDT on September 22, 2014

East to southeast flow behind a dissipating frontal boundary moving very slowly over areas north of Orlando will feed a moist atmosphere into east central Florida today. The combination of daytime heating...mid level disturbances crossing overhead during the day and sea breeze and outflow boundary collisions will produce numerous showers and storms this afternoon. A few showers will be possible at the coast late morning then coverage of showers and storms is expected to increase by late afternoon today. Additional details...including graphics are available online at: http://www.Srh.NOAA.Gov/mlb/blog.Php

×

10-Day Weather Forecast

Almanac

Astronomy

Sep. 22, 2014 Rise Set
Actual Time 7:11 AM EDT 7:19 PM EDT
Civil Twilight 6:48 AM EDT 7:43 PM EDT
Nautical Twilight 6:21 AM EDT 8:10 PM EDT
Astronomical Twilight 5:54 AM EDT 8:37 PM EDT
Moon 5:45 AM EDT 6:23 PM EDT
Length of Visible Light 12h 54m
Length of Day
12h 07m
Tomorrow will be 1m 37s shorter.
Waning Crescent, 3% of the Moon is Illuminated
Today
Waning Crescent
Sep 24
New
Oct 1
First Quarter
Oct 8
Full
Oct 15
Last Quarter

Today's Extremes

State Highs State Lows

Community

WunderPhotos

Upload Photos

1,755,409 photos uploaded!

Nearby

Snow Depth

Station Depth Elevation
No new snow has been reported.

Earthquake Activity

City Distance Mag. Time & Date
No recent earthquake activity has been reported nearby.
Minimum magnitude displayed is 2.5.

Coastal Water Temperatures

Place Temperature
Lake Worth, FL 84.9 °F
Naples, FL 88.0 °F
Fort Myers, FL 82.9 °F

Nearby Weather Stations